sensor_id;sensor_type;location;lat;lon;timestamp;temperature;humidity
42141;DHT22;27809;51.864;5.646;2022-10-16T00:01:18;11.50;99.90
42141;DHT22;27809;51.864;5.646;2022-10-16T00:03:45;11.40;99.90
42141;DHT22;27809;51.864;5.646;2022-10-16T00:06:11;11.40;99.90
42141;DHT22;27809;51.864;5.646;2022-10-16T00:08:38;11.60;99.90
42141;DHT22;27809;51.864;5.646;2022-10-16T00:11:14;11.70;99.90
42141;DHT22;27809;51.864;5.646;2022-10-16T00:13:41;11.60;99.90
42141;DHT22;27809;51.864;5.646;2022-10-16T00:16:07;11.40;99.90
42141;DHT22;27809;51.864;5.646;2022-10-16T00:18:33;11.30;99.90
42141;DHT22;27809;51.864;5.646;2022-10-16T00:21:10;11.50;99.90
42141;DHT22;27809;51.864;5.646;2022-10-16T00:23:37;11.50;99.90
42141;DHT22;27809;51.864;5.646;2022-10-16T00:26:06;11.50;99.90
42141;DHT22;27809;51.864;5.646;2022-10-16T00:28:32;11.70;99.90
42141;DHT22;27809;51.864;5.646;2022-10-16T00:30:58;11.60;99.90
42141;DHT22;27809;51.864;5.646;2022-10-16T00:33:24;11.70;99.90
42141;DHT22;27809;51.864;5.646;2022-10-16T00:35:50;11.90;99.90
42141;DHT22;27809;51.864;5.646;2022-10-16T00:38:16;11.60;99.90
42141;DHT22;27809;51.864;5.646;2022-10-16T00:40:41;11.50;99.90
42141;DHT22;27809;51.864;5.646;2022-10-16T00:43:32;11.30;99.90
42141;DHT22;27809;51.864;5.646;2022-10-16T00:46:00;11.40;99.90
42141;DHT22;27809;51.864;5.646;2022-10-16T00:48:25;11.40;99.90
42141;DHT22;27809;51.864;5.646;2022-10-16T00:50:52;11.30;99.90
42141;DHT22;27809;51.864;5.646;2022-10-16T00:53:18;11.40;99.90
42141;DHT22;27809;51.864;5.646;2022-10-16T00:55:44;11.50;99.90
42141;DHT22;27809;51.864;5.646;2022-10-16T00:58:11;11.40;99.90
42141;DHT22;27809;51.864;5.646;2022-10-16T01:00:36;11.20;99.90
42141;DHT22;27809;51.864;5.646;2022-10-16T01:03:21;11.30;99.90
42141;DHT22;27809;51.864;5.646;2022-10-16T01:05:52;11.20;99.90
42141;DHT22;27809;51.864;5.646;2022-10-16T01:11:34;11.40;99.90
42141;DHT22;27809;51.864;5.646;2022-10-16T01:14:08;11.60;99.90
42141;DHT22;27809;51.864;5.646;2022-10-16T01:16:53;11.60;99.90
42141;DHT22;27809;51.864;5.646;2022-10-16T01:19:38;11.60;99.90
42141;DHT22;27809;51.864;5.646;2022-10-16T01:22:08;11.70;99.90
42141;DHT22;27809;51.864;5.646;2022-10-16T01:24:44;11.70;99.90
42141;DHT22;27809;51.864;5.646;2022-10-16T01:27:24;11.80;99.90
42141;DHT22;27809;51.864;5.646;2022-10-16T01:33:21;11.80;99.90
42141;DHT22;27809;51.864;5.646;2022-10-16T01:35:54;11.70;99.90
42141;DHT22;27809;51.864;5.646;2022-10-16T01:38:33;11.70;99.90
42141;DHT22;27809;51.864;5.646;2022-10-16T01:41:21;11.80;99.90
42141;DHT22;27809;51.864;5.646;2022-10-16T01:43:56;11.80;99.90
42141;DHT22;27809;51.864;5.646;2022-10-16T01:46:24;11.80;99.90
42141;DHT22;27809;51.864;5.646;2022-10-16T01:48:52;11.70;99.90
42141;DHT22;27809;51.864;5.646;2022-10-16T01:51:19;11.90;99.90
42141;DHT22;27809;51.864;5.646;2022-10-16T01:53:49;11.80;99.90
42141;DHT22;27809;51.864;5.646;2022-10-16T01:56:17;11.80;99.90
42141;DHT22;27809;51.864;5.646;2022-10-16T01:58:51;11.70;99.90
42141;DHT22;27809;51.864;5.646;2022-10-16T02:01:19;11.80;99.90
42141;DHT22;27809;51.864;5.646;2022-10-16T02:03:51;11.90;99.90
42141;DHT22;27809;51.864;5.646;2022-10-16T02:06:18;11.80;99.90
42141;DHT22;27809;51.864;5.646;2022-10-16T02:08:43;11.70;99.90
42141;DHT22;27809;51.864;5.646;2022-10-16T02:11:10;11.80;99.90
42141;DHT22;27809;51.864;5.646;2022-10-16T02:13:40;11.90;99.90
42141;DHT22;27809;51.864;5.646;2022-10-16T02:16:10;12.00;99.90
42141;DHT22;27809;51.864;5.646;2022-10-16T02:18:36;11.90;99.90
42141;DHT22;27809;51.864;5.646;2022-10-16T02:30:10;11.70;99.90
42141;DHT22;27809;51.864;5.646;2022-10-16T02:32:41;11.70;99.90
42141;DHT22;27809;51.864;5.646;2022-10-16T02:35:08;11.80;99.90
42141;DHT22;27809;51.864;5.646;2022-10-16T02:37:34;11.70;99.90
42141;DHT22;27809;51.864;5.646;2022-10-16T02:40:01;11.80;99.90
42141;DHT22;27809;51.864;5.646;2022-10-16T02:42:38;11.70;99.90
42141;DHT22;27809;51.864;5.646;2022-10-16T02:45:05;11.70;99.90
42141;DHT22;27809;51.864;5.646;2022-10-16T02:47:31;11.80;99.90
42141;DHT22;27809;51.864;5.646;2022-10-16T02:49:57;11.60;99.90
42141;DHT22;27809;51.864;5.646;2022-10-16T02:52:22;11.80;99.90
42141;DHT22;27809;51.864;5.646;2022-10-16T02:54:48;11.60;99.90
42141;DHT22;27809;51.864;5.646;2022-10-16T02:57:13;11.50;99.90
42141;DHT22;27809;51.864;5.646;2022-10-16T02:59:39;11.40;99.90
42141;DHT22;27809;51.864;5.646;2022-10-16T03:02:05;11.50;99.90
42141;DHT22;27809;51.864;5.646;2022-10-16T03:04:30;11.30;99.90
42141;DHT22;27809;51.864;5.646;2022-10-16T03:06:56;11.40;99.90
42141;DHT22;27809;51.864;5.646;2022-10-16T03:09:21;11.40;99.90
42141;DHT22;27809;51.864;5.646;2022-10-16T03:11:47;11.20;99.90
42141;DHT22;27809;51.864;5.646;2022-10-16T03:14:12;11.10;99.90
42141;DHT22;27809;51.864;5.646;2022-10-16T03:16:38;11.20;99.90
42141;DHT22;27809;51.864;5.646;2022-10-16T03:19:04;11.20;99.90
42141;DHT22;27809;51.864;5.646;2022-10-16T03:21:29;11.30;99.90
42141;DHT22;27809;51.864;5.646;2022-10-16T03:23:55;11.30;99.90
42141;DHT22;27809;51.864;5.646;2022-10-16T03:26:20;11.20;99.90
42141;DHT22;27809;51.864;5.646;2022-10-16T03:28:46;11.30;99.90
42141;DHT22;27809;51.864;5.646;2022-10-16T03:31:12;11.20;99.90
42141;DHT22;27809;51.864;5.646;2022-10-16T03:33:37;11.10;99.90
42141;DHT22;27809;51.864;5.646;2022-10-16T03:36:03;11.10;99.90
42141;DHT22;27809;51.864;5.646;2022-10-16T03:38:28;11.10;99.90
42141;DHT22;27809;51.864;5.646;2022-10-16T03:40:54;11.10;99.90
42141;DHT22;27809;51.864;5.646;2022-10-16T03:43:20;11.20;99.90
42141;DHT22;27809;51.864;5.646;2022-10-16T03:45:45;11.10;99.90
42141;DHT22;27809;51.864;5.646;2022-10-16T03:48:11;11.20;99.90
42141;DHT22;27809;51.864;5.646;2022-10-16T03:50:36;11.20;99.90
42141;DHT22;27809;51.864;5.646;2022-10-16T03:53:03;11.40;99.90
42141;DHT22;27809;51.864;5.646;2022-10-16T03:55:28;11.20;99.90
42141;DHT22;27809;51.864;5.646;2022-10-16T03:57:54;11.30;99.90
42141;DHT22;27809;51.864;5.646;2022-10-16T04:00:19;11.30;99.90
42141;DHT22;27809;51.864;5.646;2022-10-16T04:02:45;11.40;99.90
42141;DHT22;27809;51.864;5.646;2022-10-16T04:05:11;11.40;99.90
42141;DHT22;27809;51.864;5.646;2022-10-16T04:07:37;11.30;99.90
42141;DHT22;27809;51.864;5.646;2022-10-16T04:10:03;11.30;99.90
42141;DHT22;27809;51.864;5.646;2022-10-16T04:12:29;11.40;99.90
42141;DHT22;27809;51.864;5.646;2022-10-16T04:14:54;11.40;99.90
42141;DHT22;27809;51.864;5.646;2022-10-16T04:17:20;11.40;99.90
42141;DHT22;27809;51.864;5.646;2022-10-16T04:19:45;11.40;99.90
42141;DHT22;27809;51.864;5.646;2022-10-16T04:22:11;11.50;99.90
42141;DHT22;27809;51.864;5.646;2022-10-16T04:24:36;11.30;99.90
42141;DHT22;27809;51.864;5.646;2022-10-16T04:27:02;11.40;99.90
42141;DHT22;27809;51.864;5.646;2022-10-16T04:29:28;11.40;99.90
42141;DHT22;27809;51.864;5.646;2022-10-16T04:31:53;11.40;99.90
42141;DHT22;27809;51.864;5.646;2022-10-16T04:34:19;11.40;99.90
42141;DHT22;27809;51.864;5.646;2022-10-16T04:36:47;11.40;99.90
42141;DHT22;27809;51.864;5.646;2022-10-16T04:39:13;11.40;99.90
42141;DHT22;27809;51.864;5.646;2022-10-16T04:41:38;11.50;99.90
42141;DHT22;27809;51.864;5.646;2022-10-16T04:44:04;11.40;99.90
42141;DHT22;27809;51.864;5.646;2022-10-16T04:46:29;11.40;99.90
42141;DHT22;27809;51.864;5.646;2022-10-16T04:48:55;11.50;99.90
42141;DHT22;27809;51.864;5.646;2022-10-16T04:51:21;11.50;99.90
42141;DHT22;27809;51.864;5.646;2022-10-16T04:53:46;11.30;99.90
42141;DHT22;27809;51.864;5.646;2022-10-16T04:56:12;11.20;99.90
42141;DHT22;27809;51.864;5.646;2022-10-16T04:58:37;11.20;99.90
42141;DHT22;27809;51.864;5.646;2022-10-16T05:01:03;11.00;99.90
42141;DHT22;27809;51.864;5.646;2022-10-16T05:03:28;11.10;99.90
42141;DHT22;27809;51.864;5.646;2022-10-16T05:05:54;11.10;99.90
42141;DHT22;27809;51.864;5.646;2022-10-16T05:08:19;11.00;99.90
42141;DHT22;27809;51.864;5.646;2022-10-16T05:10:45;11.00;99.90
42141;DHT22;27809;51.864;5.646;2022-10-16T05:13:11;10.90;99.90
42141;DHT22;27809;51.864;5.646;2022-10-16T05:15:36;10.90;99.90
42141;DHT22;27809;51.864;5.646;2022-10-16T05:18:02;11.00;99.90
42141;DHT22;27809;51.864;5.646;2022-10-16T05:20:28;10.90;99.90
42141;DHT22;27809;51.864;5.646;2022-10-16T05:22:54;10.80;99.90
42141;DHT22;27809;51.864;5.646;2022-10-16T05:25:19;10.70;99.90
42141;DHT22;27809;51.864;5.646;2022-10-16T05:27:48;10.70;99.90
42141;DHT22;27809;51.864;5.646;2022-10-16T05:30:15;10.70;99.90
42141;DHT22;27809;51.864;5.646;2022-10-16T05:32:41;10.50;99.90
42141;DHT22;27809;51.864;5.646;2022-10-16T05:35:06;10.60;99.90
42141;DHT22;27809;51.864;5.646;2022-10-16T05:37:32;10.50;99.90
42141;DHT22;27809;51.864;5.646;2022-10-16T05:39:57;10.40;99.90
42141;DHT22;27809;51.864;5.646;2022-10-16T05:42:23;10.30;99.90
42141;DHT22;27809;51.864;5.646;2022-10-16T05:44:48;10.30;99.90
42141;DHT22;27809;51.864;5.646;2022-10-16T05:47:14;10.30;99.90
42141;DHT22;27809;51.864;5.646;2022-10-16T05:49:40;10.30;99.90
42141;DHT22;27809;51.864;5.646;2022-10-16T05:52:05;10.20;99.90
42141;DHT22;27809;51.864;5.646;2022-10-16T05:54:31;10.10;99.90
42141;DHT22;27809;51.864;5.646;2022-10-16T05:56:56;10.20;99.90
42141;DHT22;27809;51.864;5.646;2022-10-16T05:59:22;10.30;99.90
42141;DHT22;27809;51.864;5.646;2022-10-16T06:01:47;10.40;99.90
42141;DHT22;27809;51.864;5.646;2022-10-16T06:04:13;10.50;99.90
42141;DHT22;27809;51.864;5.646;2022-10-16T06:06:38;10.40;99.90
42141;DHT22;27809;51.864;5.646;2022-10-16T06:09:04;10.20;99.90
42141;DHT22;27809;51.864;5.646;2022-10-16T06:11:31;10.20;99.90
42141;DHT22;27809;51.864;5.646;2022-10-16T06:13:59;10.30;99.90
42141;DHT22;27809;51.864;5.646;2022-10-16T06:16:27;10.30;99.90
42141;DHT22;27809;51.864;5.646;2022-10-16T06:18:55;10.50;99.90
42141;DHT22;27809;51.864;5.646;2022-10-16T06:21:28;10.60;99.90
42141;DHT22;27809;51.864;5.646;2022-10-16T06:23:54;10.70;99.90
42141;DHT22;27809;51.864;5.646;2022-10-16T06:26:23;10.90;99.90
42141;DHT22;27809;51.864;5.646;2022-10-16T06:28:49;11.00;99.90
42141;DHT22;27809;51.864;5.646;2022-10-16T06:31:16;11.20;99.90
42141;DHT22;27809;51.864;5.646;2022-10-16T06:33:41;11.20;99.90
42141;DHT22;27809;51.864;5.646;2022-10-16T06:36:12;11.40;99.90
42141;DHT22;27809;51.864;5.646;2022-10-16T06:38:38;11.40;99.90
42141;DHT22;27809;51.864;5.646;2022-10-16T06:41:05;11.50;99.90
42141;DHT22;27809;51.864;5.646;2022-10-16T06:43:31;11.50;99.90
42141;DHT22;27809;51.864;5.646;2022-10-16T06:46:01;11.70;99.90
42141;DHT22;27809;51.864;5.646;2022-10-16T06:48:28;11.70;99.90
42141;DHT22;27809;51.864;5.646;2022-10-16T06:51:10;11.80;99.90
42141;DHT22;27809;51.864;5.646;2022-10-16T06:53:39;11.90;99.90
42141;DHT22;27809;51.864;5.646;2022-10-16T06:58:41;12.00;99.90
42141;DHT22;27809;51.864;5.646;2022-10-16T07:01:08;12.10;99.90
42141;DHT22;27809;51.864;5.646;2022-10-16T07:03:44;12.10;99.90
42141;DHT22;27809;51.864;5.646;2022-10-16T07:06:12;12.20;99.90
42141;DHT22;27809;51.864;5.646;2022-10-16T07:08:40;12.20;99.90
42141;DHT22;27809;51.864;5.646;2022-10-16T07:11:08;12.30;99.90
42141;DHT22;27809;51.864;5.646;2022-10-16T07:13:35;12.30;99.90
42141;DHT22;27809;51.864;5.646;2022-10-16T07:16:12;12.40;99.90
42141;DHT22;27809;51.864;5.646;2022-10-16T07:18:38;12.40;99.90
42141;DHT22;27809;51.864;5.646;2022-10-16T07:21:11;12.40;99.90
42141;DHT22;27809;51.864;5.646;2022-10-16T07:23:36;12.40;99.90
42141;DHT22;27809;51.864;5.646;2022-10-16T07:26:03;12.50;99.90
42141;DHT22;27809;51.864;5.646;2022-10-16T07:28:29;12.50;99.90
42141;DHT22;27809;51.864;5.646;2022-10-16T07:30:55;12.60;99.90
42141;DHT22;27809;51.864;5.646;2022-10-16T07:33:21;12.50;99.90
42141;DHT22;27809;51.864;5.646;2022-10-16T07:35:54;12.50;99.90
42141;DHT22;27809;51.864;5.646;2022-10-16T07:38:20;12.70;99.90
42141;DHT22;27809;51.864;5.646;2022-10-16T07:40:46;12.80;99.90
42141;DHT22;27809;51.864;5.646;2022-10-16T07:43:14;13.00;99.90
42141;DHT22;27809;51.864;5.646;2022-10-16T07:45:49;13.10;99.90
42141;DHT22;27809;51.864;5.646;2022-10-16T07:48:16;13.10;99.90
42141;DHT22;27809;51.864;5.646;2022-10-16T07:50:41;13.20;99.90
42141;DHT22;27809;51.864;5.646;2022-10-16T07:53:07;13.30;99.90
42141;DHT22;27809;51.864;5.646;2022-10-16T07:55:33;13.20;99.90
42141;DHT22;27809;51.864;5.646;2022-10-16T07:57:58;13.10;99.90
42141;DHT22;27809;51.864;5.646;2022-10-16T08:00:24;13.40;99.90
42141;DHT22;27809;51.864;5.646;2022-10-16T08:02:49;13.40;99.90
42141;DHT22;27809;51.864;5.646;2022-10-16T08:05:15;13.50;99.90
42141;DHT22;27809;51.864;5.646;2022-10-16T08:07:40;13.50;99.90
42141;DHT22;27809;51.864;5.646;2022-10-16T08:10:06;13.60;99.90
42141;DHT22;27809;51.864;5.646;2022-10-16T08:12:32;13.60;99.90
42141;DHT22;27809;51.864;5.646;2022-10-16T08:14:57;13.70;99.90
42141;DHT22;27809;51.864;5.646;2022-10-16T08:17:23;14.60;99.90
42141;DHT22;27809;51.864;5.646;2022-10-16T08:19:48;15.70;99.90
42141;DHT22;27809;51.864;5.646;2022-10-16T08:22:14;15.90;99.90
42141;DHT22;27809;51.864;5.646;2022-10-16T08:24:40;16.50;99.90
42141;DHT22;27809;51.864;5.646;2022-10-16T08:27:06;17.00;99.90
42141;DHT22;27809;51.864;5.646;2022-10-16T08:29:32;17.70;99.90
42141;DHT22;27809;51.864;5.646;2022-10-16T08:31:58;18.60;99.90
42141;DHT22;27809;51.864;5.646;2022-10-16T08:34:23;19.10;95.10
42141;DHT22;27809;51.864;5.646;2022-10-16T08:36:49;18.90;96.90
42141;DHT22;27809;51.864;5.646;2022-10-16T08:39:15;18.80;96.90
42141;DHT22;27809;51.864;5.646;2022-10-16T08:41:57;19.10;93.50
42141;DHT22;27809;51.864;5.646;2022-10-16T08:44:55;19.10;94.30
42141;DHT22;27809;51.864;5.646;2022-10-16T08:50:21;19.90;91.10
42141;DHT22;27809;51.864;5.646;2022-10-16T08:52:47;19.60;91.70
42141;DHT22;27809;51.864;5.646;2022-10-16T08:55:49;19.80;88.80
42141;DHT22;27809;51.864;5.646;2022-10-16T08:58:18;20.00;90.10
42141;DHT22;27809;51.864;5.646;2022-10-16T09:00:47;20.30;86.50
42141;DHT22;27809;51.864;5.646;2022-10-16T09:14:33;19.50;87.40
42141;DHT22;27809;51.864;5.646;2022-10-16T09:17:39;19.60;90.40
42141;DHT22;27809;51.864;5.646;2022-10-16T09:20:14;18.80;92.00
42141;DHT22;27809;51.864;5.646;2022-10-16T09:22:42;19.00;92.50
42141;DHT22;27809;51.864;5.646;2022-10-16T09:25:17;18.70;92.30
42141;DHT22;27809;51.864;5.646;2022-10-16T09:27:48;18.50;92.70
42141;DHT22;27809;51.864;5.646;2022-10-16T09:30:18;17.90;94.90
42141;DHT22;27809;51.864;5.646;2022-10-16T09:32:45;17.60;94.50
42141;DHT22;27809;51.864;5.646;2022-10-16T09:35:18;17.80;96.00
42141;DHT22;27809;51.864;5.646;2022-10-16T09:37:46;18.00;95.50
42141;DHT22;27809;51.864;5.646;2022-10-16T09:40:23;18.20;94.60
42141;DHT22;27809;51.864;5.646;2022-10-16T09:42:50;18.10;95.50
42141;DHT22;27809;51.864;5.646;2022-10-16T09:45:22;18.00;95.40
42141;DHT22;27809;51.864;5.646;2022-10-16T09:47:48;18.30;94.20
42141;DHT22;27809;51.864;5.646;2022-10-16T09:50:24;18.20;94.40
42141;DHT22;27809;51.864;5.646;2022-10-16T09:53:02;18.70;92.80
42141;DHT22;27809;51.864;5.646;2022-10-16T09:55:27;19.50;91.50
42141;DHT22;27809;51.864;5.646;2022-10-16T09:57:54;19.30;92.20
42141;DHT22;27809;51.864;5.646;2022-10-16T10:00:21;21.60;82.40
42141;DHT22;27809;51.864;5.646;2022-10-16T10:02:47;21.40;69.80
42141;DHT22;27809;51.864;5.646;2022-10-16T10:05:39;19.30;87.70
42141;DHT22;27809;51.864;5.646;2022-10-16T10:08:05;18.40;92.70
42141;DHT22;27809;51.864;5.646;2022-10-16T10:10:34;18.20;94.90
42141;DHT22;27809;51.864;5.646;2022-10-16T10:13:02;18.20;95.00
42141;DHT22;27809;51.864;5.646;2022-10-16T10:15:33;18.10;94.30
42141;DHT22;27809;51.864;5.646;2022-10-16T10:18:00;18.30;93.20
42141;DHT22;27809;51.864;5.646;2022-10-16T10:20:30;19.40;84.00
42141;DHT22;27809;51.864;5.646;2022-10-16T10:22:58;20.20;84.60
42141;DHT22;27809;51.864;5.646;2022-10-16T10:28:31;22.10;70.20
42141;DHT22;27809;51.864;5.646;2022-10-16T10:31:19;22.70;65.40
42141;DHT22;27809;51.864;5.646;2022-10-16T10:33:54;22.30;65.10
42141;DHT22;27809;51.864;5.646;2022-10-16T10:36:28;22.00;66.40
42141;DHT22;27809;51.864;5.646;2022-10-16T10:39:14;21.90;64.40
42141;DHT22;27809;51.864;5.646;2022-10-16T10:50:22;20.30;69.60
42141;DHT22;27809;51.864;5.646;2022-10-16T10:55:53;18.40;87.40
42141;DHT22;27809;51.864;5.646;2022-10-16T10:58:48;18.40;82.60
42141;DHT22;27809;51.864;5.646;2022-10-16T11:01:16;18.10;87.30
42141;DHT22;27809;51.864;5.646;2022-10-16T11:06:40;18.30;89.30
42141;DHT22;27809;51.864;5.646;2022-10-16T11:09:22;18.80;83.60
42141;DHT22;27809;51.864;5.646;2022-10-16T11:11:59;18.90;78.50
42141;DHT22;27809;51.864;5.646;2022-10-16T11:14:40;19.30;77.90
42141;DHT22;27809;51.864;5.646;2022-10-16T11:17:15;19.60;86.20
42141;DHT22;27809;51.864;5.646;2022-10-16T11:19:49;20.40;73.50
42141;DHT22;27809;51.864;5.646;2022-10-16T11:22:40;20.50;68.70
42141;DHT22;27809;51.864;5.646;2022-10-16T11:25:32;18.70;77.20
42141;DHT22;27809;51.864;5.646;2022-10-16T11:28:19;18.30;82.00
42141;DHT22;27809;51.864;5.646;2022-10-16T11:31:10;17.80;84.10
42141;DHT22;27809;51.864;5.646;2022-10-16T11:34:09;18.50;87.10
42141;DHT22;27809;51.864;5.646;2022-10-16T11:36:54;18.60;79.00
42141;DHT22;27809;51.864;5.646;2022-10-16T11:39:25;20.90;75.80
42141;DHT22;27809;51.864;5.646;2022-10-16T11:41:55;22.00;69.50
42141;DHT22;27809;51.864;5.646;2022-10-16T11:50:13;22.10;63.40
42141;DHT22;27809;51.864;5.646;2022-10-16T11:53:55;22.40;61.50
42141;DHT22;27809;51.864;5.646;2022-10-16T11:55:48;22.20;62.80
42141;DHT22;27809;51.864;5.646;2022-10-16T11:58:47;21.80;60.70
42141;DHT22;27809;51.864;5.646;2022-10-16T12:06:51;21.50;65.30
42141;DHT22;27809;51.864;5.646;2022-10-16T12:09:26;19.60;69.90
42141;DHT22;27809;51.864;5.646;2022-10-16T12:11:53;18.40;72.90
42141;DHT22;27809;51.864;5.646;2022-10-16T12:14:32;18.00;85.90
42141;DHT22;27809;51.864;5.646;2022-10-16T12:17:04;17.90;90.30
42141;DHT22;27809;51.864;5.646;2022-10-16T12:20:42;17.70;85.00
42141;DHT22;27809;51.864;5.646;2022-10-16T12:22:49;17.70;80.50
42141;DHT22;27809;51.864;5.646;2022-10-16T12:25:35;17.80;84.10
42141;DHT22;27809;51.864;5.646;2022-10-16T12:28:17;17.80;81.90
42141;DHT22;27809;51.864;5.646;2022-10-16T12:30:56;17.80;84.50
42141;DHT22;27809;51.864;5.646;2022-10-16T12:33:25;17.80;88.90
42141;DHT22;27809;51.864;5.646;2022-10-16T12:35:52;17.60;86.90
42141;DHT22;27809;51.864;5.646;2022-10-16T12:38:26;17.50;90.80
42141;DHT22;27809;51.864;5.646;2022-10-16T12:41:02;17.60;86.90
42141;DHT22;27809;51.864;5.646;2022-10-16T12:43:40;17.60;82.00
42141;DHT22;27809;51.864;5.646;2022-10-16T12:48:41;17.60;83.90
42141;DHT22;27809;51.864;5.646;2022-10-16T12:51:11;17.60;88.60
42141;DHT22;27809;51.864;5.646;2022-10-16T12:53:37;20.40;84.80
42141;DHT22;27809;51.864;5.646;2022-10-16T12:56:24;21.00;79.20
42141;DHT22;27809;51.864;5.646;2022-10-16T13:07:55;20.90;74.40
42141;DHT22;27809;51.864;5.646;2022-10-16T13:10:36;19.90;72.80
42141;DHT22;27809;51.864;5.646;2022-10-16T13:18:48;17.80;86.80
42141;DHT22;27809;51.864;5.646;2022-10-16T13:21:38;17.40;90.80
42141;DHT22;27809;51.864;5.646;2022-10-16T13:27:11;17.30;86.20
42141;DHT22;27809;51.864;5.646;2022-10-16T13:29:39;17.30;87.50
42141;DHT22;27809;51.864;5.646;2022-10-16T13:32:09;17.40;87.30
42141;DHT22;27809;51.864;5.646;2022-10-16T13:34:44;17.60;79.70
42141;DHT22;27809;51.864;5.646;2022-10-16T13:37:18;17.40;89.40
42141;DHT22;27809;51.864;5.646;2022-10-16T13:39:44;17.20;91.10
42141;DHT22;27809;51.864;5.646;2022-10-16T13:42:12;17.10;88.50
42141;DHT22;27809;51.864;5.646;2022-10-16T13:44:43;16.90;92.50
42141;DHT22;27809;51.864;5.646;2022-10-16T13:47:35;16.90;94.20
42141;DHT22;27809;51.864;5.646;2022-10-16T13:50:09;17.10;95.00
42141;DHT22;27809;51.864;5.646;2022-10-16T13:52:36;17.20;93.60
42141;DHT22;27809;51.864;5.646;2022-10-16T13:55:04;17.10;90.40
42141;DHT22;27809;51.864;5.646;2022-10-16T13:57:30;17.10;94.70
42141;DHT22;27809;51.864;5.646;2022-10-16T13:59:55;17.30;91.30
42141;DHT22;27809;51.864;5.646;2022-10-16T14:02:32;18.40;95.30
42141;DHT22;27809;51.864;5.646;2022-10-16T14:05:01;19.30;79.40
42141;DHT22;27809;51.864;5.646;2022-10-16T14:07:30;17.70;85.30
42141;DHT22;27809;51.864;5.646;2022-10-16T14:10:03;17.10;93.00
42141;DHT22;27809;51.864;5.646;2022-10-16T14:12:29;16.80;99.70
42141;DHT22;27809;51.864;5.646;2022-10-16T14:14:55;16.90;99.10
42141;DHT22;27809;51.864;5.646;2022-10-16T14:17:34;17.00;94.10
42141;DHT22;27809;51.864;5.646;2022-10-16T14:20:04;16.90;97.70
42141;DHT22;27809;51.864;5.646;2022-10-16T14:22:32;16.80;99.90
42141;DHT22;27809;51.864;5.646;2022-10-16T14:24:59;17.00;93.20
42141;DHT22;27809;51.864;5.646;2022-10-16T14:27:35;17.40;91.90
42141;DHT22;27809;51.864;5.646;2022-10-16T14:30:11;17.10;93.20
42141;DHT22;27809;51.864;5.646;2022-10-16T14:32:41;16.80;95.60
42141;DHT22;27809;51.864;5.646;2022-10-16T14:35:28;17.30;92.50
42141;DHT22;27809;51.864;5.646;2022-10-16T14:37:55;16.80;94.40
42141;DHT22;27809;51.864;5.646;2022-10-16T14:40:24;16.80;98.00
42141;DHT22;27809;51.864;5.646;2022-10-16T14:42:50;16.60;99.90
42141;DHT22;27809;51.864;5.646;2022-10-16T14:45:30;16.60;99.90
42141;DHT22;27809;51.864;5.646;2022-10-16T14:48:06;16.10;99.90
42141;DHT22;27809;51.864;5.646;2022-10-16T14:50:39;16.00;99.90
42141;DHT22;27809;51.864;5.646;2022-10-16T14:53:11;16.20;99.90
42141;DHT22;27809;51.864;5.646;2022-10-16T14:55:37;16.10;99.90
42141;DHT22;27809;51.864;5.646;2022-10-16T14:58:03;16.10;99.90
42141;DHT22;27809;51.864;5.646;2022-10-16T15:00:29;16.10;99.90
42141;DHT22;27809;51.864;5.646;2022-10-16T15:02:54;16.20;99.90
42141;DHT22;27809;51.864;5.646;2022-10-16T15:05:26;16.20;99.90
42141;DHT22;27809;51.864;5.646;2022-10-16T15:07:53;16.00;99.90
42141;DHT22;27809;51.864;5.646;2022-10-16T15:10:20;16.00;99.90
42141;DHT22;27809;51.864;5.646;2022-10-16T15:12:46;16.00;99.90
42141;DHT22;27809;51.864;5.646;2022-10-16T15:17:56;15.80;99.90
42141;DHT22;27809;51.864;5.646;2022-10-16T15:20:26;15.80;99.90
42141;DHT22;27809;51.864;5.646;2022-10-16T15:22:52;15.70;99.90
42141;DHT22;27809;51.864;5.646;2022-10-16T15:25:31;15.70;99.90
42141;DHT22;27809;51.864;5.646;2022-10-16T15:27:58;17.00;99.90
42141;DHT22;27809;51.864;5.646;2022-10-16T15:30:24;16.20;99.90
42141;DHT22;27809;51.864;5.646;2022-10-16T15:32:50;15.80;99.90
42141;DHT22;27809;51.864;5.646;2022-10-16T15:35:15;15.70;99.90
42141;DHT22;27809;51.864;5.646;2022-10-16T15:37:41;18.40;99.90
42141;DHT22;27809;51.864;5.646;2022-10-16T15:40:08;16.80;99.90
42141;DHT22;27809;51.864;5.646;2022-10-16T15:42:35;16.00;99.90
42141;DHT22;27809;51.864;5.646;2022-10-16T15:45:00;15.70;99.90
42141;DHT22;27809;51.864;5.646;2022-10-16T15:47:26;15.50;99.90
42141;DHT22;27809;51.864;5.646;2022-10-16T15:49:51;15.40;99.90
42141;DHT22;27809;51.864;5.646;2022-10-16T15:52:17;15.40;99.90
42141;DHT22;27809;51.864;5.646;2022-10-16T15:54:43;15.30;99.90
42141;DHT22;27809;51.864;5.646;2022-10-16T15:57:09;15.20;99.90
42141;DHT22;27809;51.864;5.646;2022-10-16T15:59:34;15.20;99.90
42141;DHT22;27809;51.864;5.646;2022-10-16T16:02:00;15.20;99.90
42141;DHT22;27809;51.864;5.646;2022-10-16T16:04:26;15.20;99.90
42141;DHT22;27809;51.864;5.646;2022-10-16T16:10:13;15.00;99.90
42141;DHT22;27809;51.864;5.646;2022-10-16T16:12:39;15.00;99.90
42141;DHT22;27809;51.864;5.646;2022-10-16T16:15:05;14.90;99.90
42141;DHT22;27809;51.864;5.646;2022-10-16T16:17:32;14.80;99.90
42141;DHT22;27809;51.864;5.646;2022-10-16T16:19:58;14.80;99.90
42141;DHT22;27809;51.864;5.646;2022-10-16T16:22:24;14.70;99.90
42141;DHT22;27809;51.864;5.646;2022-10-16T16:24:49;14.80;99.90
42141;DHT22;27809;51.864;5.646;2022-10-16T16:27:15;14.80;99.90
42141;DHT22;27809;51.864;5.646;2022-10-16T16:29:41;14.60;99.90
42141;DHT22;27809;51.864;5.646;2022-10-16T16:32:06;14.70;99.90
42141;DHT22;27809;51.864;5.646;2022-10-16T16:34:32;14.70;99.90
42141;DHT22;27809;51.864;5.646;2022-10-16T16:36:57;14.60;99.90
42141;DHT22;27809;51.864;5.646;2022-10-16T16:39:23;14.50;99.90
42141;DHT22;27809;51.864;5.646;2022-10-16T16:41:49;14.60;99.90
42141;DHT22;27809;51.864;5.646;2022-10-16T16:44:15;14.60;99.90
42141;DHT22;27809;51.864;5.646;2022-10-16T16:46:43;14.60;99.90
42141;DHT22;27809;51.864;5.646;2022-10-16T16:49:12;14.50;99.90
42141;DHT22;27809;51.864;5.646;2022-10-16T16:51:38;14.50;99.90
42141;DHT22;27809;51.864;5.646;2022-10-16T16:54:04;14.50;99.90
42141;DHT22;27809;51.864;5.646;2022-10-16T16:56:30;14.40;99.90
42141;DHT22;27809;51.864;5.646;2022-10-16T16:58:57;14.40;99.90
42141;DHT22;27809;51.864;5.646;2022-10-16T17:01:24;14.30;99.90
42141;DHT22;27809;51.864;5.646;2022-10-16T17:03:52;14.30;99.90
42141;DHT22;27809;51.864;5.646;2022-10-16T17:06:19;14.40;99.90
42141;DHT22;27809;51.864;5.646;2022-10-16T17:08:45;14.30;99.90
42141;DHT22;27809;51.864;5.646;2022-10-16T17:11:15;14.30;99.90
42141;DHT22;27809;51.864;5.646;2022-10-16T17:13:41;14.20;99.90